sensor_id;sensor_type;location;lat;lon;timestamp;P1;durP1;ratioP1;P2;durP2;ratioP2
928;SDS011;451;47.988;7.842;2023-06-14T00:08:20;6.70;;;6.20;;
928;SDS011;451;47.988;7.842;2023-06-14T00:17:25;7.93;;;7.23;;
928;SDS011;451;47.988;7.842;2023-06-14T00:26:31;7.43;;;6.83;;
928;SDS011;451;47.988;7.842;2023-06-14T00:35:36;10.03;;;7.60;;
928;SDS011;451;47.988;7.842;2023-06-14T00:44:39;9.70;;;6.77;;
928;SDS011;451;47.988;7.842;2023-06-14T00:53:43;7.80;;;7.10;;
928;SDS011;451;47.988;7.842;2023-06-14T01:02:48;9.80;;;8.80;;
928;SDS011;451;47.988;7.842;2023-06-14T01:11:57;7.40;;;6.90;;
928;SDS011;451;47.988;7.842;2023-06-14T01:21:05;7.93;;;7.23;;
928;SDS011;451;47.988;7.842;2023-06-14T01:30:10;8.00;;;7.20;;
928;SDS011;451;47.988;7.842;2023-06-14T01:39:15;7.60;;;7.00;;
928;SDS011;451;47.988;7.842;2023-06-14T01:48:21;7.90;;;6.83;;
928;SDS011;451;47.988;7.842;2023-06-14T01:57:24;8.43;;;7.63;;
928;SDS011;451;47.988;7.842;2023-06-14T02:06:30;7.07;;;6.57;;
928;SDS011;451;47.988;7.842;2023-06-14T02:15:33;8.00;;;7.30;;
928;SDS011;451;47.988;7.842;2023-06-14T02:24:38;6.73;;;6.23;;
928;SDS011;451;47.988;7.842;2023-06-14T02:33:43;7.10;;;6.50;;
928;SDS011;451;47.988;7.842;2023-06-14T02:42:47;7.57;;;7.00;;
928;SDS011;451;47.988;7.842;2023-06-14T02:51:50;8.67;;;7.63;;
928;SDS011;451;47.988;7.842;2023-06-14T03:00:55;6.80;;;6.20;;
928;SDS011;451;47.988;7.842;2023-06-14T03:10:00;7.00;;;6.40;;
928;SDS011;451;47.988;7.842;2023-06-14T03:19:07;7.80;;;6.70;;
928;SDS011;451;47.988;7.842;2023-06-14T03:28:10;7.77;;;7.10;;
928;SDS011;451;47.988;7.842;2023-06-14T03:37:15;7.60;;;6.80;;
928;SDS011;451;47.988;7.842;2023-06-14T03:46:19;6.63;;;6.10;;
928;SDS011;451;47.988;7.842;2023-06-14T03:55:23;7.90;;;7.10;;
928;SDS011;451;47.988;7.842;2023-06-14T04:04:29;7.53;;;6.93;;
928;SDS011;451;47.988;7.842;2023-06-14T04:13:36;6.63;;;6.13;;
928;SDS011;451;47.988;7.842;2023-06-14T04:22:41;7.10;;;6.50;;
928;SDS011;451;47.988;7.842;2023-06-14T04:31:48;6.80;;;6.13;;
928;SDS011;451;47.988;7.842;2023-06-14T04:40:52;7.40;;;6.70;;
928;SDS011;451;47.988;7.842;2023-06-14T04:49:58;6.70;;;6.00;;
928;SDS011;451;47.988;7.842;2023-06-14T04:59:04;6.43;;;5.90;;
928;SDS011;451;47.988;7.842;2023-06-14T05:08:08;6.70;;;6.20;;
928;SDS011;451;47.988;7.842;2023-06-14T05:17:13;8.60;;;6.73;;
928;SDS011;451;47.988;7.842;2023-06-14T05:26:20;6.70;;;6.20;;
928;SDS011;451;47.988;7.842;2023-06-14T05:35:24;13.70;;;10.30;;
928;SDS011;451;47.988;7.842;2023-06-14T05:44:30;6.87;;;6.33;;
928;SDS011;451;47.988;7.842;2023-06-14T05:53:33;7.20;;;6.50;;
928;SDS011;451;47.988;7.842;2023-06-14T06:02:37;6.73;;;6.13;;
928;SDS011;451;47.988;7.842;2023-06-14T06:11:40;7.10;;;6.50;;
928;SDS011;451;47.988;7.842;2023-06-14T06:20:45;7.33;;;6.67;;
928;SDS011;451;47.988;7.842;2023-06-14T06:29:48;10.73;;;7.50;;
928;SDS011;451;47.988;7.842;2023-06-14T06:38:54;8.10;;;7.07;;
928;SDS011;451;47.988;7.842;2023-06-14T06:47:57;8.37;;;6.93;;
928;SDS011;451;47.988;7.842;2023-06-14T06:57:01;9.60;;;7.17;;
928;SDS011;451;47.988;7.842;2023-06-14T07:06:05;8.20;;;7.50;;
928;SDS011;451;47.988;7.842;2023-06-14T07:15:10;7.57;;;6.37;;
928;SDS011;451;47.988;7.842;2023-06-14T07:24:13;7.67;;;6.97;;
928;SDS011;451;47.988;7.842;2023-06-14T07:33:17;11.73;;;7.30;;
928;SDS011;451;47.988;7.842;2023-06-14T07:42:20;7.60;;;6.83;;
928;SDS011;451;47.988;7.842;2023-06-14T07:51:24;7.70;;;7.00;;
928;SDS011;451;47.988;7.842;2023-06-14T08:00:27;8.03;;;7.40;;
928;SDS011;451;47.988;7.842;2023-06-14T08:09:32;8.00;;;6.73;;
928;SDS011;451;47.988;7.842;2023-06-14T08:18:35;7.80;;;7.20;;
928;SDS011;451;47.988;7.842;2023-06-14T08:27:39;11.33;;;7.37;;
928;SDS011;451;47.988;7.842;2023-06-14T08:36:43;9.80;;;8.30;;
928;SDS011;451;47.988;7.842;2023-06-14T08:45:47;8.80;;;8.00;;
928;SDS011;451;47.988;7.842;2023-06-14T08:54:55;9.53;;;8.57;;
928;SDS011;451;47.988;7.842;2023-06-14T09:04:00;9.70;;;8.70;;
928;SDS011;451;47.988;7.842;2023-06-14T09:13:03;10.87;;;8.00;;
928;SDS011;451;47.988;7.842;2023-06-14T09:22:08;7.83;;;7.33;;
928;SDS011;451;47.988;7.842;2023-06-14T09:31:13;8.80;;;8.00;;
928;SDS011;451;47.988;7.842;2023-06-14T09:40:21;9.00;;;8.20;;
928;SDS011;451;47.988;7.842;2023-06-14T09:49:24;7.50;;;6.80;;
928;SDS011;451;47.988;7.842;2023-06-14T09:58:29;8.20;;;7.60;;
928;SDS011;451;47.988;7.842;2023-06-14T10:07:35;7.93;;;7.23;;
928;SDS011;451;47.988;7.842;2023-06-14T10:16:45;8.83;;;7.70;;
928;SDS011;451;47.988;7.842;2023-06-14T10:25:56;8.23;;;7.40;;
928;SDS011;451;47.988;7.842;2023-06-14T10:35:04;8.93;;;8.03;;
928;SDS011;451;47.988;7.842;2023-06-14T10:53:41;8.33;;;7.70;;
928;SDS011;451;47.988;7.842;2023-06-14T11:02:51;8.40;;;7.70;;
928;SDS011;451;47.988;7.842;2023-06-14T11:12:16;8.10;;;7.37;;
928;SDS011;451;47.988;7.842;2023-06-14T11:21:21;8.70;;;7.83;;
928;SDS011;451;47.988;7.842;2023-06-14T11:30:27;8.50;;;7.77;;
928;SDS011;451;47.988;7.842;2023-06-14T11:39:31;7.63;;;7.00;;
928;SDS011;451;47.988;7.842;2023-06-14T11:48:40;9.23;;;8.43;;
928;SDS011;451;47.988;7.842;2023-06-14T11:57:46;8.20;;;7.40;;
928;SDS011;451;47.988;7.842;2023-06-14T12:06:50;8.97;;;8.17;;
928;SDS011;451;47.988;7.842;2023-06-14T12:15:55;11.33;;;7.70;;
928;SDS011;451;47.988;7.842;2023-06-14T12:25:00;8.27;;;7.57;;
928;SDS011;451;47.988;7.842;2023-06-14T12:34:05;8.53;;;7.83;;
928;SDS011;451;47.988;7.842;2023-06-14T12:43:09;8.63;;;8.00;;
928;SDS011;451;47.988;7.842;2023-06-14T12:52:12;8.30;;;7.70;;
928;SDS011;451;47.988;7.842;2023-06-14T13:01:17;9.33;;;8.50;;
928;SDS011;451;47.988;7.842;2023-06-14T13:10:20;9.80;;;8.47;;
928;SDS011;451;47.988;7.842;2023-06-14T13:19:24;8.83;;;8.10;;
928;SDS011;451;47.988;7.842;2023-06-14T13:28:27;8.03;;;7.43;;
928;SDS011;451;47.988;7.842;2023-06-14T13:48:03;8.70;;;7.80;;
928;SDS011;451;47.988;7.842;2023-06-14T13:57:06;7.90;;;7.30;;
928;SDS011;451;47.988;7.842;2023-06-14T14:06:10;8.27;;;7.57;;
928;SDS011;451;47.988;7.842;2023-06-14T14:15:13;9.10;;;8.37;;
928;SDS011;451;47.988;7.842;2023-06-14T14:24:18;8.27;;;7.50;;
928;SDS011;451;47.988;7.842;2023-06-14T14:33:21;10.40;;;7.33;;
928;SDS011;451;47.988;7.842;2023-06-14T14:42:26;8.27;;;7.47;;
928;SDS011;451;47.988;7.842;2023-06-14T14:51:29;7.57;;;6.97;;
928;SDS011;451;47.988;7.842;2023-06-14T15:00:34;7.40;;;6.87;;
928;SDS011;451;47.988;7.842;2023-06-14T15:09:37;7.67;;;7.10;;
928;SDS011;451;47.988;7.842;2023-06-14T15:18:42;8.87;;;8.07;;
928;SDS011;451;47.988;7.842;2023-06-14T15:27:45;8.53;;;7.73;;
928;SDS011;451;47.988;7.842;2023-06-14T15:36:49;8.33;;;7.43;;
928;SDS011;451;47.988;7.842;2023-06-14T15:45:52;12.27;;;7.30;;
928;SDS011;451;47.988;7.842;2023-06-14T15:54:57;8.13;;;7.50;;
928;SDS011;451;47.988;7.842;2023-06-14T16:04:00;7.23;;;6.63;;
928;SDS011;451;47.988;7.842;2023-06-14T16:13:05;8.63;;;7.73;;
928;SDS011;451;47.988;7.842;2023-06-14T16:22:08;8.13;;;7.33;;
928;SDS011;451;47.988;7.842;2023-06-14T16:31:12;8.90;;;8.20;;
928;SDS011;451;47.988;7.842;2023-06-14T16:40:17;7.93;;;7.40;;
928;SDS011;451;47.988;7.842;2023-06-14T16:49:21;8.57;;;7.87;;
928;SDS011;451;47.988;7.842;2023-06-14T16:58:25;12.83;;;11.60;;
928;SDS011;451;47.988;7.842;2023-06-14T17:07:29;8.60;;;7.80;;
928;SDS011;451;47.988;7.842;2023-06-14T17:16:33;8.80;;;8.00;;
928;SDS011;451;47.988;7.842;2023-06-14T17:25:38;8.07;;;7.37;;
928;SDS011;451;47.988;7.842;2023-06-14T17:34:41;8.87;;;8.23;;
928;SDS011;451;47.988;7.842;2023-06-14T17:43:45;8.40;;;7.63;;
928;SDS011;451;47.988;7.842;2023-06-14T17:52:48;8.23;;;7.50;;
928;SDS011;451;47.988;7.842;2023-06-14T18:01:53;7.80;;;7.10;;
928;SDS011;451;47.988;7.842;2023-06-14T18:10:56;8.60;;;7.50;;
928;SDS011;451;47.988;7.842;2023-06-14T18:20:00;9.53;;;7.70;;
928;SDS011;451;47.988;7.842;2023-06-14T18:29:05;8.73;;;8.03;;
928;SDS011;451;47.988;7.842;2023-06-14T18:38:09;7.90;;;7.20;;
928;SDS011;451;47.988;7.842;2023-06-14T18:47:13;8.07;;;7.57;;
928;SDS011;451;47.988;7.842;2023-06-14T18:56:17;7.77;;;7.17;;
928;SDS011;451;47.988;7.842;2023-06-14T19:05:20;9.53;;;8.30;;
928;SDS011;451;47.988;7.842;2023-06-14T19:14:25;8.20;;;7.50;;
928;SDS011;451;47.988;7.842;2023-06-14T19:23:28;8.83;;;8.00;;
928;SDS011;451;47.988;7.842;2023-06-14T19:32:32;8.10;;;7.30;;
928;SDS011;451;47.988;7.842;2023-06-14T19:41:37;7.43;;;6.93;;
928;SDS011;451;47.988;7.842;2023-06-14T19:50:41;12.10;;;7.97;;
928;SDS011;451;47.988;7.842;2023-06-14T19:59:45;8.63;;;7.60;;
928;SDS011;451;47.988;7.842;2023-06-14T20:08:49;8.30;;;7.70;;
928;SDS011;451;47.988;7.842;2023-06-14T20:17:52;9.17;;;8.13;;
928;SDS011;451;47.988;7.842;2023-06-14T20:26:57;9.10;;;8.30;;
928;SDS011;451;47.988;7.842;2023-06-14T20:36:00;8.20;;;7.60;;
928;SDS011;451;47.988;7.842;2023-06-14T20:45:05;8.83;;;8.07;;
928;SDS011;451;47.988;7.842;2023-06-14T20:54:09;8.93;;;8.20;;
928;SDS011;451;47.988;7.842;2023-06-14T21:03:14;9.57;;;8.87;;
928;SDS011;451;47.988;7.842;2023-06-14T21:12:17;10.43;;;9.43;;
928;SDS011;451;47.988;7.842;2023-06-14T21:21:21;9.50;;;8.70;;
928;SDS011;451;47.988;7.842;2023-06-14T21:30:30;9.90;;;9.10;;
928;SDS011;451;47.988;7.842;2023-06-14T21:39:36;10.07;;;9.30;;
928;SDS011;451;47.988;7.842;2023-06-14T21:48:40;11.57;;;9.70;;
928;SDS011;451;47.988;7.842;2023-06-14T21:57:45;9.57;;;8.77;;
928;SDS011;451;47.988;7.842;2023-06-14T22:06:48;10.43;;;9.40;;
928;SDS011;451;47.988;7.842;2023-06-14T22:15:52;10.53;;;9.63;;
928;SDS011;451;47.988;7.842;2023-06-14T22:24:57;14.93;;;12.00;;
928;SDS011;451;47.988;7.842;2023-06-14T22:34:02;10.23;;;9.37;;
928;SDS011;451;47.988;7.842;2023-06-14T22:43:05;10.60;;;9.80;;
928;SDS011;451;47.988;7.842;2023-06-14T22:52:10;13.50;;;12.20;;
928;SDS011;451;47.988;7.842;2023-06-14T23:01:13;12.50;;;10.57;;
928;SDS011;451;47.988;7.842;2023-06-14T23:10:18;9.80;;;8.80;;
928;SDS011;451;47.988;7.842;2023-06-14T23:19:25;9.87;;;9.07;;
928;SDS011;451;47.988;7.842;2023-06-14T23:28:32;9.70;;;8.80;;
928;SDS011;451;47.988;7.842;2023-06-14T23:37:35;11.03;;;9.10;;
928;SDS011;451;47.988;7.842;2023-06-14T23:46:40;9.67;;;8.87;;
928;SDS011;451;47.988;7.842;2023-06-14T23:55:43;10.30;;;9.50;;
